McChord Air Force Base
KTCM : now visible

Airfield :











YOU CAN JOIN US ON...

 
LOGIN :

Register | Disclaimer

   EN    FR    IT 

 









Legend :    VFR   Marginal VFR   IFR   Intensive IFR   Very Intensive IFR
Visi :
Ceiling :
>= 8 km
>= 3000ft
5 to 8 km
1000 to 3000 ft
1500m to 5 km
500 to 1000 ft
800 to 1500m
200 to 500 ft
< 800m
< 200 ft
Symbols :   Thunderstorms  Fog  Heavy snow  Heavy precipitations  Wind > 20 kt






- Airport Elevation : 322 ft


KTCM - McChord Air Force Base

CURRENT METAR :
  • 281158Z AUTO 18008KT 10SM SCT049 10/09 A2991 RMK AO2 SLP133 60001 70004 T00970088 10112 20094 51003 $

EXPIRED METARs :
  • 281058Z AUTO 18007KT 10SM FEW050 10/09 A2990 RMK AO2 RAB09E18RAB18E18 SLP129 P0000 T00970088 $
  • 281018Z AUTO 18008KT 10SM FEW090 SCT110 10/09 A2990 RMK AO2 RAB09E18RAB18 SLP129 $
  • 280958Z AUTO 18008KT 10SM FEW055 10/09 A2990 RMK AO2 SLP129 T00980089 $

TAF TAF KTCM
Valid from the 28 at 05:00 until the 29 at 11:00 UTC


280500Z 2805/2911 19006KT 9999 FEW030 BKN060 620609 QNH2984INS
BECMG 2810/2811 18009KT 9999 FEW010 BKN015 620604 QNH2989INS
BECMG 2815/2816 21012G18KT 9000 -SHRA SCT010 BKN015 610604 QNH2998INS
TEMPO 2817/2821 22012G20KT
BECMG 2821/2822 22012G20KT 9999 NSW SCT030 BKN050 620606 QNH3006INS
BECMG 2901/2902 20009KT 9999 BKN040 OVC050 620606 QNH3009INS TX15/2821Z TN08/2812Z
KZSE FIR / North America



MET'MAP, your aeronautical weather chart ! - Copyright ORBIFLY December 2007 - Disclaimer

ORBIFLY MET'MAP TEAM :

Programming & Development : Alexandra Zaïnal
Concept & original design : Baudouin d'Aumeries
Assistance for programming : Marc-Olivier Méhu
Technical & hardware support : Manuel Goepfert

Contact : metmap@orbifly.com




SOURCES & CREDITS :

   NOAA       Earth
Advisory